METAR AND TAF INFORMATION
METAR FOR ETMN
ADDS - METARS form results

(0659 UTC 23 January 2019)
Data provider http://aviationweather.gov/metar/data/
 
METAR text: ETMN 230639Z 14007KT 7000 SCT024 M06/M08 Q1001 WHT BLU TEMPO GRN
Conditions at: ETMN (NORDHOLZ (GER-NA, DE) observed 0639 UTC 23 January 2019
Temperature: -6.0°C (21°F)
Dewpoint: -8.0°C (18°F) [RH = 86%]
Pressure (altimeter): 29.56 inches Hg (1001.0 mb)
Winds: from the SE (140 degrees) at 8 MPH (7 knots; 3.6 m/s)
Visibility: 4 miles ( 7 km)
Ceiling: at least 12,000 feet AGL
Clouds: scattered clouds at 2400 feet AGL
Weather: no significant weather observed at this time

METAR text: ETMN 230620Z 13008KT 8000 BKN024 M06/M08 Q1001 WHT BLU TEMPO GRN
Conditions at: ETMN (NORDHOLZ (GER-NA, DE) observed 0620 UTC 23 January 2019
Temperature: -6.0°C (21°F)
Dewpoint: -8.0°C (18°F) [RH = 86%]
Pressure (altimeter): 29.56 inches Hg (1001.0 mb)
Winds: from the SE (130 degrees) at 9 MPH (8 knots; 4.1 m/s)
Visibility: 5 miles ( 8 km)
Ceiling: 2400 feet AGL
Clouds: broken clouds at 2400 feet AGL
Weather: no significant weather observed at this time

Forecast for: ETMN (NORDHOLZ (GER-NA, DE)
Text: TAF ETMN 230520Z 2306/2315 13007KT 9000 NSW FEW012 BKN200
Forecast period: 0600 to 1500 UTC 23 January 2019
Forecast type: FROM: standard forecast or significant change
Winds: from the SE (130 degrees) at 8 MPH (7 knots; 3.6 m/s)
Visibility: 6 miles (9 km)
Ceiling: 20000 feet AGL
Clouds: few clouds at 1200 feet AGL
broken clouds at 20000 feet AGL
Weather: NSW  (no significant weather)
Text: TEMPO 2306/2312 12008KT 4000 BR SCT010 BKN020 BKN150
Forecast period: 0600 to 1200 UTC 23 January 2019
Forecast type: TEMPORARY: The following changes expected for less than half the time period
Winds: from the ESE (120 degrees) at 9 MPH (8 knots; 4.1 m/s)
Visibility: 2.49 miles (4.01 km)
Ceiling: 2000 feet AGL
Clouds: scattered clouds at 1000 feet AGL
broken clouds at 2000 feet AGL
broken clouds at 15000 feet AGL
Weather: BR  (mist)

 AIRPORT MAP

 RUNWAY INFORMATION
Runway 08 Runway length 8002 ft Runway width 148 ft
Runway elevation 69 ft Runway displaced threshold 0 ft Runway heading 78
Runway 26 Runway length 8002 ft Runway width 148 ft
Runway elevation 39 ft Runway displaced threshold 0 ft Runway heading 258

 AIRPORT FREQUENCIES
Type A/D Name RADAR Frequency 35.612 MHZ
Type A/D Name RADAR Frequency 123.3 MHZ
Type ACC Name BREMEN CON Frequency 124.075 MHZ
Type AFIS Name BREMEN INF Frequency 125.1 MHZ
Type OPS Name WING OPS Frequency 28.252 MHZ
Type TWR Name TWR Frequency 122.1 MHZ

 AIRPORT NEAR NAVIGATION AIDS
Type TACAN Name Nordholz Frequency 117100 KHZ
Type NDB Name Nordholz Frequency 372 KHZ